Time;durP1;ratioP1;P1;durP2;ratioP2;P2;SDS_P1;SDS_P2;PMS_P1;PMS_P2;Temp;Humidity;BMP_temperature;BMP_pressure;BME280_temperature;BME280_humidity;BME280_pressure;Samples;Min_cycle;Max_cycle;Signal;HPM_P1;HPM_P2
2022/03/05 00:02:04;;;;;;;27.05;21.92;;;7.80;77.40;;;;;;5093859;28;20093;-90
2022/03/05 00:04:31;;;;;;;29.35;22.60;;;7.80;77.40;;;;;;5091597;28;20048;-91
2022/03/05 00:06:58;;;;;;;34.67;23.73;;;7.80;77.40;;;;;;5093097;28;20075;-91
2022/03/05 00:09:28;;;;;;;31.35;23.33;;;7.80;77.40;;;;;;5089779;28;20048;-91
2022/03/05 00:11:54;;;;;;;28.38;23.23;;;7.70;77.40;;;;;;5081088;28;20062;-90
2022/03/05 00:14:21;;;;;;;31.65;23.17;;;7.80;77.40;;;;;;5098523;28;20044;-90
2022/03/05 00:16:48;;;;;;;36.20;25.33;;;7.70;77.40;;;;;;5093922;28;20054;-91
2022/03/05 00:19:15;;;;;;;30.90;23.67;;;7.70;77.30;;;;;;5096733;28;20498;-90
2022/03/05 00:21:42;;;;;;;30.33;23.85;;;7.70;77.30;;;;;;5095031;28;20502;-91
2022/03/05 00:24:09;;;;;;;34.53;24.98;;;7.70;77.30;;;;;;5096435;28;20036;-92
2022/03/05 00:26:36;;;;;;;32.17;24.38;;;7.70;77.30;;;;;;5096367;28;20108;-90
2022/03/05 00:29:04;;;;;;;32.60;25.02;;;7.70;77.30;;;;;;5096708;28;20094;-93
2022/03/05 00:31:31;;;;;;;32.97;24.48;;;7.60;77.20;;;;;;5096818;28;20052;-91
2022/03/05 00:33:58;;;;;;;34.83;24.77;;;7.60;77.20;;;;;;5096812;28;20040;-91
2022/03/05 00:36:25;;;;;;;33.47;24.70;;;7.60;77.20;;;;;;5095212;28;20052;-91
2022/03/05 00:38:52;;;;;;;33.53;26.02;;;7.60;77.20;;;;;;5094946;28;20075;-90
2022/03/05 00:41:19;;;;;;;33.70;25.55;;;7.60;77.20;;;;;;5094541;28;20052;-93
2022/03/05 00:43:46;;;;;;;34.50;25.30;;;7.50;77.20;;;;;;5096437;28;20048;-90
2022/03/05 00:46:12;;;;;;;33.13;26.05;;;7.50;77.10;;;;;;5096779;28;20044;-91
2022/03/05 00:48:40;;;;;;;36.20;26.23;;;7.50;77.10;;;;;;5097544;28;20047;-91
2022/03/05 00:51:07;;;;;;;35.75;26.40;;;7.50;77.20;;;;;;5097599;28;20044;-90
2022/03/05 00:53:34;;;;;;;34.03;26.73;;;7.50;77.20;;;;;;5098515;28;20074;-91
2022/03/05 00:56:01;;;;;;;31.63;24.92;;;7.50;77.30;;;;;;5098077;28;20056;-90
2022/03/05 00:58:28;;;;;;;34.38;26.83;;;7.40;77.30;;;;;;5095573;28;20052;-90
2022/03/05 01:00:55;;;;;;;34.58;26.60;;;7.40;77.30;;;;;;5093436;28;20074;-90
2022/03/05 01:03:22;;;;;;;35.55;26.30;;;7.40;77.30;;;;;;5093625;28;20489;-90
2022/03/05 01:05:50;;;;;;;32.85;24.92;;;7.40;77.40;;;;;;5094764;28;20053;-90
2022/03/05 01:08:17;;;;;;;33.90;26.40;;;7.40;77.40;;;;;;5095932;28;20090;-91
2022/03/05 01:10:44;;;;;;;32.78;26.55;;;7.40;77.40;;;;;;5093920;28;20097;-90
2022/03/05 01:13:11;;;;;;;31.45;25.80;;;7.40;77.40;;;;;;5094423;28;20052;-90
2022/03/05 01:15:39;;;;;;;33.50;26.23;;;7.40;77.40;;;;;;5091840;28;20505;-90
2022/03/05 01:18:06;;;;;;;34.83;25.38;;;7.30;77.40;;;;;;5093041;28;20057;-91
2022/03/05 01:20:33;;;;;;;32.70;24.90;;;7.30;77.40;;;;;;5094533;28;20418;-90
2022/03/05 01:23:00;;;;;;;33.20;24.90;;;7.30;77.40;;;;;;5094278;28;20052;-90
2022/03/05 01:25:27;;;;;;;31.75;25.65;;;7.30;77.40;;;;;;5093603;28;20060;-91
2022/03/05 01:27:54;;;;;;;29.90;23.63;;;7.20;77.40;;;;;;5093077;28;20056;-90
2022/03/05 01:30:21;;;;;;;33.22;24.60;;;7.20;77.30;;;;;;5094057;28;20048;-91
2022/03/05 01:32:48;;;;;;;32.42;24.50;;;7.20;77.30;;;;;;5093034;28;20575;-90
2022/03/05 01:35:15;;;;;;;30.45;23.45;;;7.10;77.30;;;;;;5095849;28;20478;-92
2022/03/05 01:37:42;;;;;;;26.83;22.65;;;7.10;77.20;;;;;;5093712;28;20048;-91
2022/03/05 01:40:09;;;;;;;33.95;24.17;;;7.00;77.20;;;;;;5094552;28;20044;-91
2022/03/05 01:42:36;;;;;;;30.92;24.48;;;7.00;77.10;;;;;;5092398;28;20040;-92
2022/03/05 01:45:04;;;;;;;28.95;23.35;;;7.00;77.10;;;;;;5094456;28;20048;-90
2022/03/05 01:47:31;;;;;;;27.77;22.52;;;7.00;77.10;;;;;;5095623;28;20097;-90
2022/03/05 01:49:58;;;;;;;27.02;21.85;;;7.00;77.00;;;;;;5089245;28;20109;-91
2022/03/05 01:52:25;;;;;;;25.55;21.40;;;6.90;76.90;;;;;;5093683;28;20060;-91
2022/03/05 01:54:52;;;;;;;28.77;22.85;;;6.90;76.90;;;;;;5088491;28;20464;-90
2022/03/05 01:57:19;;;;;;;29.42;22.52;;;6.90;76.80;;;;;;5094403;28;20044;-90
2022/03/05 01:59:46;;;;;;;29.52;22.95;;;6.80;76.80;;;;;;5094333;28;20056;-90
2022/03/05 02:02:12;;;;;;;27.40;22.75;;;6.80;76.80;;;;;;5096522;28;20048;-90
2022/03/05 02:04:40;;;;;;;33.55;24.42;;;6.70;76.70;;;;;;5094140;28;20490;-90
2022/03/05 02:07:08;;;;;;;28.67;23.02;;;6.70;76.70;;;;;;5092209;28;20135;-90
2022/03/05 02:09:36;;;;;;;29.05;23.50;;;6.70;76.70;;;;;;5093950;28;20052;-91
2022/03/05 02:12:03;;;;;;;29.42;22.40;;;6.70;76.70;;;;;;5092390;28;20409;-90
2022/03/05 02:14:30;;;;;;;25.35;21.42;;;6.60;76.70;;;;;;5094637;28;20044;-90
2022/03/05 02:16:57;;;;;;;26.98;22.67;;;6.60;76.60;;;;;;5093378;28;20051;-90
2022/03/05 02:19:24;;;;;;;28.05;21.75;;;6.50;76.60;;;;;;5092471;28;20051;-90
2022/03/05 02:21:51;;;;;;;26.52;21.25;;;6.50;76.60;;;;;;5090669;28;20051;-90
2022/03/05 02:24:31;;;;;;;27.95;21.13;;;6.50;76.60;;;;;;5091570;28;20048;-90
2022/03/05 02:27:00;;;;;;;27.73;21.25;;;6.50;76.60;;;;;;5090779;28;20052;-90
2022/03/05 02:29:28;;;;;;;25.70;21.17;;;6.40;76.70;;;;;;5094105;28;20052;-89
2022/03/05 02:31:54;;;;;;;26.65;21.10;;;6.40;76.80;;;;;;5090928;28;20055;-90
2022/03/05 02:34:22;;;;;;;27.52;21.80;;;6.40;76.80;;;;;;5092163;28;20044;-90
2022/03/05 02:36:49;;;;;;;27.13;21.45;;;6.40;76.80;;;;;;5092262;28;20052;-91
2022/03/05 02:39:16;;;;;;;24.27;20.65;;;6.40;76.90;;;;;;5090346;28;20108;-91
2022/03/05 02:41:43;;;;;;;25.50;21.08;;;6.40;76.90;;;;;;5092321;28;20472;-91
2022/03/05 02:44:10;;;;;;;25.05;20.33;;;6.30;77.00;;;;;;5094371;28;20101;-90
2022/03/05 02:46:37;;;;;;;25.45;20.17;;;6.30;77.00;;;;;;5089768;28;20097;-91
2022/03/05 02:49:04;;;;;;;24.80;19.73;;;6.30;77.10;;;;;;5092256;28;20055;-90
2022/03/05 02:51:31;;;;;;;25.95;21.00;;;6.30;77.10;;;;;;5091906;28;20205;-90
2022/03/05 02:53:58;;;;;;;27.30;20.75;;;6.30;77.20;;;;;;5090516;28;20102;-90
2022/03/05 02:56:25;;;;;;;26.15;20.88;;;6.30;77.20;;;;;;5093554;28;20093;-90
2022/03/05 02:58:52;;;;;;;25.25;19.92;;;6.30;77.30;;;;;;5091796;28;20051;-91
2022/03/05 03:01:19;;;;;;;25.25;19.63;;;6.20;77.30;;;;;;5090228;28;20468;-90
2022/03/05 03:03:46;;;;;;;25.88;19.48;;;6.20;77.40;;;;;;5091225;28;20056;-91
2022/03/05 03:06:13;;;;;;;26.77;20.73;;;6.20;77.40;;;;;;5090163;28;20040;-89
2022/03/05 03:08:40;;;;;;;26.77;19.23;;;6.20;77.40;;;;;;5092501;28;20578;-91
2022/03/05 03:11:07;;;;;;;24.20;19.83;;;6.20;77.40;;;;;;5092314;28;20047;-90
2022/03/05 03:13:34;;;;;;;26.63;19.55;;;6.20;77.50;;;;;;5090707;28;20052;-90
2022/03/05 03:16:01;;;;;;;27.65;21.35;;;6.20;77.50;;;;;;5092286;28;20048;-90
2022/03/05 03:18:28;;;;;;;31.88;22.20;;;6.20;77.50;;;;;;5091692;28;20052;-90
2022/03/05 03:20:55;;;;;;;26.13;20.75;;;6.20;77.60;;;;;;5089793;28;20040;-90
2022/03/05 03:23:21;;;;;;;28.20;20.52;;;6.20;77.60;;;;;;5093960;28;20041;-90
2022/03/05 03:25:48;;;;;;;25.10;20.02;;;6.20;77.70;;;;;;5093075;28;20052;-89
2022/03/05 03:28:15;;;;;;;27.55;21.90;;;6.20;77.70;;;;;;5091922;28;20066;-88
2022/03/05 03:30:42;;;;;;;28.40;21.17;;;6.20;77.80;;;;;;5091705;28;20460;-89
2022/03/05 03:33:09;;;;;;;27.60;21.13;;;6.20;77.80;;;;;;5091757;28;20108;-90
2022/03/05 03:35:36;;;;;;;28.42;21.83;;;6.20;77.80;;;;;;5093939;28;20052;-90
2022/03/05 03:38:04;;;;;;;38.95;24.75;;;6.20;77.90;;;;;;5092128;28;20063;-90
2022/03/05 03:40:31;;;;;;;33.45;23.17;;;6.30;78.00;;;;;;5092232;28;20044;-91
2022/03/05 03:42:58;;;;;;;32.35;22.58;;;6.30;78.10;;;;;;5091794;28;20044;-90
2022/03/05 03:45:25;;;;;;;37.85;26.05;;;6.30;78.10;;;;;;5092329;28;20452;-92
2022/03/05 03:47:52;;;;;;;40.65;26.48;;;6.30;78.20;;;;;;5092334;28;20043;-91
2022/03/05 03:50:23;;;;;;;41.15;25.63;;;6.30;78.30;;;;;;5089668;28;20052;-90
2022/03/05 03:52:51;;;;;;;37.42;24.75;;;6.40;78.40;;;;;;5092325;28;20051;-90
2022/03/05 03:55:20;;;;;;;37.08;26.23;;;6.40;78.40;;;;;;5091287;28;20090;-91
2022/03/05 03:57:48;;;;;;;48.97;30.35;;;6.40;78.50;;;;;;5091188;28;20051;-90
2022/03/05 04:00:17;;;;;;;41.38;26.80;;;6.40;78.60;;;;;;5090625;28;20044;-91
2022/03/05 04:02:44;;;;;;;40.88;28.92;;;6.40;78.60;;;;;;5089857;28;20061;-90
2022/03/05 04:05:11;;;;;;;42.72;27.17;;;6.40;78.70;;;;;;5092541;28;20127;-90
2022/03/05 04:10:25;;;;;;;57.20;31.30;;;6.50;78.80;;;;;;5090999;28;20047;-90
2022/03/05 04:12:52;;;;;;;50.88;30.02;;;6.50;78.90;;;;;;5089377;28;20048;-89
2022/03/05 04:15:19;;;;;;;47.60;29.85;;;6.60;79.00;;;;;;5091437;28;20575;-91
2022/03/05 04:17:46;;;;;;;49.38;29.23;;;6.60;79.00;;;;;;5091686;28;20055;-91
2022/03/05 04:20:13;;;;;;;55.47;33.75;;;6.60;79.10;;;;;;5093775;28;20536;-89
2022/03/05 04:22:40;;;;;;;48.60;30.52;;;6.60;79.10;;;;;;5092044;28;20048;-92
2022/03/05 04:25:09;;;;;;;47.95;30.73;;;6.60;79.20;;;;;;5091871;28;20070;-90
2022/03/05 04:27:36;;;;;;;54.25;32.42;;;6.70;79.20;;;;;;5090742;28;20052;-90
2022/03/05 04:30:04;;;;;;;55.53;32.17;;;6.70;79.30;;;;;;5092073;28;20094;-91
2022/03/05 04:32:31;;;;;;;54.45;31.63;;;6.70;79.30;;;;;;5092224;28;20475;-91
2022/03/05 04:34:58;;;;;;;55.85;32.00;;;6.70;79.40;;;;;;5093482;28;20048;-90
2022/03/05 04:37:25;;;;;;;69.85;36.55;;;6.70;79.40;;;;;;5091735;28;20078;-91
2022/03/05 04:39:52;;;;;;;62.17;35.85;;;6.70;79.40;;;;;;5092735;28;20044;-91
2022/03/05 04:42:19;;;;;;;62.65;36.58;;;6.80;79.50;;;;;;5092746;28;20048;-91
2022/03/05 04:44:46;;;;;;;63.50;36.03;;;6.80;79.50;;;;;;5093467;28;20081;-91
2022/03/05 04:47:14;;;;;;;61.20;35.00;;;6.80;79.60;;;;;;5094516;28;20578;-90
2022/03/05 04:49:40;;;;;;;72.40;37.17;;;6.80;79.60;;;;;;5092730;28;20048;-90
2022/03/05 04:52:07;;;;;;;69.60;36.15;;;6.90;79.70;;;;;;5092977;28;20051;-91
2022/03/05 04:54:34;;;;;;;71.85;39.97;;;6.90;79.70;;;;;;5096173;28;20044;-92
2022/03/05 04:57:03;;;;;;;69.95;37.15;;;6.90;79.70;;;;;;5094900;28;20395;-90
2022/03/05 04:59:30;;;;;;;73.28;40.80;;;6.90;79.70;;;;;;5098615;28;20070;-90
2022/03/05 05:01:58;;;;;;;78.65;41.53;;;6.90;79.70;;;;;;5095599;28;20059;-90
2022/03/05 05:04:26;;;;;;;85.57;44.50;;;6.90;79.70;;;;;;5097273;28;20044;-90
2022/03/05 05:06:53;;;;;;;92.10;45.75;;;7.00;79.70;;;;;;5094483;28;20452;-91
2022/03/05 05:09:20;;;;;;;98.28;48.72;;;7.00;79.80;;;;;;5096184;28;20081;-90
2022/03/05 05:11:46;;;;;;;84.78;44.10;;;7.00;79.90;;;;;;5097895;28;20126;-91
2022/03/05 05:14:13;;;;;;;81.13;42.55;;;7.00;79.90;;;;;;5098446;28;20113;-89
2022/03/05 05:16:40;;;;;;;90.15;47.63;;;7.10;80.00;;;;;;5095444;28;20077;-90
2022/03/05 05:19:25;;;;;;;94.45;46.33;;;7.10;80.00;;;;;;5094613;28;20051;-90
2022/03/05 05:21:55;;;;;;;80.25;42.38;;;7.10;80.00;;;;;;5094501;28;20579;-91
2022/03/05 05:24:24;;;;;;;79.28;42.85;;;7.10;80.10;;;;;;5092840;28;20098;-90
2022/03/05 05:26:53;;;;;;;93.93;46.22;;;7.10;80.10;;;;;;5076679;28;20056;-91
2022/03/05 05:29:20;;;;;;;81.15;43.92;;;7.10;80.10;;;;;;5092438;28;20056;-90
2022/03/05 05:32:05;;;;;;;88.30;47.05;;;7.20;80.10;;;;;;5095331;28;20097;-90
2022/03/05 05:34:33;;;;;;;93.47;47.33;;;7.20;80.00;;;;;;5092716;28;20521;-91
2022/03/05 05:36:59;;;;;;;90.15;47.40;;;7.20;80.00;;;;;;5095143;28;20052;-90
2022/03/05 05:39:26;;;;;;;89.13;45.45;;;7.20;80.00;;;;;;5095897;28;20078;-90
2022/03/05 05:41:55;;;;;;;100.38;50.63;;;7.20;80.10;;;;;;5093695;28;20056;-90
2022/03/05 05:44:22;;;;;;;89.70;45.45;;;7.30;80.10;;;;;;5093799;28;20044;-91
2022/03/05 05:46:49;;;;;;;95.40;47.35;;;7.20;80.10;;;;;;5096459;28;20044;-90
2022/03/05 05:49:20;;;;;;;88.95;46.13;;;7.20;80.10;;;;;;5095704;28;20048;-91
2022/03/05 05:51:47;;;;;;;102.60;47.85;;;7.30;80.10;;;;;;5094603;28;20517;-91
2022/03/05 05:54:14;;;;;;;101.43;49.50;;;7.30;80.10;;;;;;5095500;28;20060;-90
2022/03/05 05:56:41;;;;;;;95.22;48.63;;;7.30;80.00;;;;;;5096305;28;20044;-91
2022/03/05 05:59:08;;;;;;;107.22;53.67;;;7.30;80.00;;;;;;5095876;28;20079;-90
2022/03/05 06:01:35;;;;;;;101.53;51.95;;;7.30;80.10;;;;;;5095166;28;20048;-90
2022/03/05 06:04:02;;;;;;;99.93;50.80;;;7.30;80.10;;;;;;5094395;28;20058;-91
2022/03/05 06:06:29;;;;;;;109.32;52.40;;;7.40;80.10;;;;;;5095366;28;20048;-91
2022/03/05 06:08:56;;;;;;;102.53;50.75;;;7.40;80.10;;;;;;5093417;28;20400;-90
2022/03/05 06:11:23;;;;;;;109.88;53.28;;;7.40;80.10;;;;;;5097831;28;20058;-91
2022/03/05 06:13:50;;;;;;;101.10;51.53;;;7.40;80.10;;;;;;5095708;28;20052;-92
2022/03/05 06:16:17;;;;;;;104.95;52.22;;;7.40;80.20;;;;;;5095405;28;20044;-90
2022/03/05 06:18:45;;;;;;;90.97;49.15;;;7.30;80.20;;;;;;5093542;28;20051;-91
2022/03/05 06:21:12;;;;;;;100.72;51.55;;;7.40;80.20;;;;;;5095631;28;20047;-90
2022/03/05 06:23:39;;;;;;;101.35;51.78;;;7.30;80.20;;;;;;5097807;28;20048;-91
2022/03/05 06:26:07;;;;;;;94.25;50.03;;;7.40;80.20;;;;;;5097581;28;20459;-90
2022/03/05 06:28:34;;;;;;;98.10;50.40;;;7.40;80.20;;;;;;5089119;28;20056;-90
2022/03/05 06:31:02;;;;;;;101.90;51.85;;;7.30;80.20;;;;;;5094606;28;20036;-90
2022/03/05 06:33:30;;;;;;;105.38;51.15;;;7.40;80.20;;;;;;5094337;28;20048;-92
2022/03/05 06:35:57;;;;;;;110.55;53.78;;;7.40;80.20;;;;;;5092718;28;20041;-90
2022/03/05 06:38:24;;;;;;;105.20;52.45;;;7.40;80.20;;;;;;5096383;28;20059;-91
2022/03/05 06:40:51;;;;;;;98.07;51.38;;;7.40;80.20;;;;;;5094645;28;20052;-90
2022/03/05 06:43:18;;;;;;;105.65;52.55;;;7.40;80.20;;;;;;5093249;28;20173;-90
2022/03/05 06:45:46;;;;;;;104.18;52.38;;;7.40;80.20;;;;;;5092876;28;20040;-90
2022/03/05 06:48:13;;;;;;;103.05;52.17;;;7.40;80.20;;;;;;5091583;28;20086;-90
2022/03/05 06:50:40;;;;;;;106.47;51.53;;;7.40;80.20;;;;;;5093015;28;20123;-91
2022/03/05 06:53:07;;;;;;;105.55;51.40;;;7.40;80.20;;;;;;5088826;28;20048;-90
2022/03/05 06:55:35;;;;;;;99.50;51.70;;;7.40;80.20;;;;;;5091224;28;20547;-90
2022/03/05 06:58:02;;;;;;;98.28;50.72;;;7.40;80.20;;;;;;5090464;28;20101;-91
2022/03/05 07:00:29;;;;;;;103.65;50.85;;;7.30;80.20;;;;;;5091776;28;20105;-92
2022/03/05 07:02:56;;;;;;;97.97;49.38;;;7.40;80.20;;;;;;5090633;28;20052;-90
2022/03/05 07:05:23;;;;;;;104.35;50.30;;;7.30;80.20;;;;;;5095629;28;20048;-91
2022/03/05 07:07:50;;;;;;;105.55;51.50;;;7.30;80.20;;;;;;5090881;28;20271;-90
2022/03/05 07:10:17;;;;;;;101.88;52.53;;;7.40;80.30;;;;;;5091003;28;20044;-89
2022/03/05 07:12:44;;;;;;;103.32;51.65;;;7.30;80.20;;;;;;5092337;28;20108;-90
2022/03/05 07:15:11;;;;;;;107.78;53.10;;;7.30;80.20;;;;;;5086928;28;20545;-90
2022/03/05 07:17:45;;;;;;;100.88;50.67;;;7.30;80.30;;;;;;5091831;28;20048;-90
2022/03/05 07:20:12;;;;;;;98.68;50.72;;;7.30;80.30;;;;;;5093668;28;20048;-90
2022/03/05 07:22:39;;;;;;;98.03;50.28;;;7.30;80.30;;;;;;5092349;28;20567;-91
2022/03/05 07:25:07;;;;;;;102.22;52.20;;;7.30;80.30;;;;;;5090541;28;20040;-92
2022/03/05 07:27:34;;;;;;;98.78;50.08;;;7.20;80.30;;;;;;5089059;28;20487;-89
2022/03/05 07:30:01;;;;;;;98.13;49.38;;;7.20;80.30;;;;;;5089711;28;20468;-91
2022/03/05 07:32:28;;;;;;;97.55;50.90;;;7.20;80.30;;;;;;5092895;28;20040;-89
2022/03/05 07:34:55;;;;;;;97.00;50.53;;;7.20;80.30;;;;;;5091952;28;20048;-91
2022/03/05 07:37:22;;;;;;;111.40;53.83;;;7.20;80.30;;;;;;5090969;28;20069;-90
2022/03/05 07:39:49;;;;;;;103.43;52.75;;;7.20;80.40;;;;;;5090512;28;20406;-88
2022/03/05 07:42:15;;;;;;;96.80;50.13;;;7.20;80.40;;;;;;5090866;28;20093;-89
2022/03/05 07:44:42;;;;;;;111.40;54.67;;;7.10;80.40;;;;;;5090811;28;20056;-90
2022/03/05 07:47:09;;;;;;;104.68;54.63;;;7.10;80.50;;;;;;5092692;28;20048;-89
2022/03/05 07:49:36;;;;;;;116.82;58.58;;;7.10;80.50;;;;;;5087370;28;20425;-88
2022/03/05 07:52:05;;;;;;;115.55;57.33;;;7.10;80.60;;;;;;5091957;28;20048;-89
2022/03/05 07:54:31;;;;;;;110.68;56.60;;;7.10;80.70;;;;;;5090828;28;20101;-89
2022/03/05 07:56:58;;;;;;;118.63;57.97;;;7.10;80.80;;;;;;5090169;28;20047;-90
2022/03/05 07:59:26;;;;;;;118.03;56.50;;;7.10;80.80;;;;;;5091522;28;20056;-89
2022/03/05 08:01:53;;;;;;;117.78;57.40;;;7.10;80.90;;;;;;5089361;28;20407;-89
2022/03/05 08:04:20;;;;;;;119.28;55.45;;;7.20;81.00;;;;;;5089917;28;20059;-89
2022/03/05 08:06:47;;;;;;;118.35;57.50;;;7.20;81.00;;;;;;5090253;28;20125;-89
2022/03/05 08:09:13;;;;;;;137.95;63.47;;;7.20;81.10;;;;;;5089907;28;20094;-90
2022/03/05 08:11:40;;;;;;;124.40;56.95;;;7.20;81.20;;;;;;5091158;28;20044;-91
2022/03/05 08:14:07;;;;;;;125.90;59.63;;;7.20;81.30;;;;;;5092266;28;20052;-89
2022/03/05 08:16:34;;;;;;;127.78;58.33;;;7.20;81.30;;;;;;5090018;28;20109;-89
2022/03/05 08:19:01;;;;;;;142.20;61.85;;;7.20;81.40;;;;;;5091013;28;20044;-91
2022/03/05 08:21:28;;;;;;;133.13;63.30;;;7.30;81.40;;;;;;5090531;28;20048;-92
2022/03/05 08:23:56;;;;;;;135.15;65.13;;;7.30;81.50;;;;;;5089928;28;20040;-90
2022/03/05 08:26:23;;;;;;;120.78;58.45;;;7.30;81.60;;;;;;5092843;28;20056;-90
2022/03/05 08:28:50;;;;;;;112.50;55.17;;;7.40;81.60;;;;;;5094254;28;20044;-91
2022/03/05 08:31:17;;;;;;;129.02;63.83;;;7.40;81.60;;;;;;5087923;28;20048;-89
2022/03/05 08:33:44;;;;;;;141.05;66.97;;;7.40;81.70;;;;;;5094046;28;20048;-90
2022/03/05 08:36:11;;;;;;;159.40;71.10;;;7.40;81.70;;;;;;5093952;28;20103;-89
2022/03/05 08:38:39;;;;;;;146.82;66.22;;;7.40;81.70;;;;;;5093635;28;20052;-89
2022/03/05 08:41:07;;;;;;;122.25;59.35;;;7.40;81.80;;;;;;5095895;28;20448;-90
2022/03/05 08:43:34;;;;;;;118.80;59.65;;;7.50;81.80;;;;;;5099341;28;20059;-89
2022/03/05 08:46:01;;;;;;;151.32;69.22;;;7.50;81.80;;;;;;5100699;28;20052;-89
2022/03/05 08:48:29;;;;;;;133.82;62.45;;;7.50;81.80;;;;;;5093834;28;20048;-91
2022/03/05 08:50:56;;;;;;;130.07;61.03;;;7.60;81.90;;;;;;5093366;28;20102;-90
2022/03/05 08:53:24;;;;;;;122.47;59.83;;;7.60;81.90;;;;;;5095886;28;20048;-89
2022/03/05 08:55:51;;;;;;;127.78;60.88;;;7.60;81.90;;;;;;5093006;28;20520;-89
2022/03/05 08:58:19;;;;;;;126.13;61.30;;;7.70;81.90;;;;;;5093903;28;20044;-90
2022/03/05 09:00:47;;;;;;;120.95;58.47;;;7.70;81.90;;;;;;5093879;28;20048;-91
2022/03/05 09:03:15;;;;;;;129.70;62.67;;;7.70;81.90;;;;;;5093832;28;20114;-91
2022/03/05 09:05:43;;;;;;;115.68;58.28;;;7.70;82.00;;;;;;5093761;28;20044;-90
2022/03/05 09:08:10;;;;;;;116.43;59.15;;;7.80;82.00;;;;;;5095515;28;20172;-90
2022/03/05 09:10:37;;;;;;;115.30;59.75;;;7.80;82.00;;;;;;5093549;28;20483;-90
2022/03/05 09:13:05;;;;;;;117.13;57.83;;;7.80;82.00;;;;;;5093565;28;20535;-89
2022/03/05 09:15:31;;;;;;;109.18;57.40;;;7.90;82.00;;;;;;5092602;28;20044;-92
2022/03/05 09:17:58;;;;;;;115.22;57.03;;;7.90;82.00;;;;;;5093535;28;20067;-91
2022/03/05 09:20:25;;;;;;;111.78;55.10;;;7.90;82.00;;;;;;5095025;28;20125;-90
2022/03/05 09:22:53;;;;;;;112.28;55.42;;;7.90;82.00;;;;;;5092497;28;20044;-90
2022/03/05 09:25:19;;;;;;;133.93;59.95;;;8.00;82.00;;;;;;5093061;28;20060;-90
2022/03/05 09:27:47;;;;;;;117.32;58.45;;;8.00;81.90;;;;;;5091072;28;20048;-90
2022/03/05 09:30:14;;;;;;;101.50;53.25;;;8.00;81.90;;;;;;5092062;28;20047;-92
2022/03/05 09:32:42;;;;;;;111.75;56.30;;;8.00;81.90;;;;;;5093205;28;20044;-92
2022/03/05 09:35:09;;;;;;;121.15;57.80;;;8.10;81.90;;;;;;5095423;28;20117;-91
2022/03/05 09:37:35;;;;;;;118.38;58.53;;;8.10;81.80;;;;;;5092563;28;20048;-90
2022/03/05 09:40:10;;;;;;;119.05;57.78;;;8.20;81.80;;;;;;5092837;28;20055;-90
2022/03/05 09:42:40;;;;;;;146.52;65.25;;;8.20;81.80;;;;;;5093057;28;20048;-90
2022/03/05 09:45:08;;;;;;;120.25;59.05;;;8.20;81.80;;;;;;5093065;28;20109;-91
2022/03/05 09:47:38;;;;;;;131.75;62.65;;;8.20;81.80;;;;;;5093519;28;20059;-90
2022/03/05 09:50:07;;;;;;;131.48;64.40;;;8.30;81.70;;;;;;5092613;28;20136;-90
2022/03/05 09:52:37;;;;;;;145.98;65.40;;;8.30;81.70;;;;;;5090659;28;20130;-90
2022/03/05 09:55:05;;;;;;;136.50;62.92;;;8.30;81.70;;;;;;5091187;28;20052;-90
2022/03/05 09:57:32;;;;;;;133.65;63.88;;;8.30;81.70;;;;;;5092870;28;20472;-91
2022/03/05 09:59:59;;;;;;;127.15;61.58;;;8.40;81.60;;;;;;5090705;28;20044;-90
2022/03/05 10:02:26;;;;;;;141.88;65.07;;;8.40;81.60;;;;;;5090698;28;20567;-91
2022/03/05 10:05:15;;;;;;;137.85;66.20;;;8.40;81.60;;;;;;5093199;28;20573;-91
2022/03/05 10:08:01;;;;;;;130.02;61.92;;;8.40;81.60;;;;;;5091042;28;20056;-90
2022/03/05 10:10:29;;;;;;;137.50;63.58;;;8.40;81.50;;;;;;5090098;28;20571;-90
2022/03/05 10:12:56;;;;;;;131.95;63.15;;;8.40;81.40;;;;;;5092338;28;20048;-91
2022/03/05 10:15:23;;;;;;;139.68;65.65;;;8.40;81.40;;;;;;5092639;28;20051;-91
2022/03/05 10:18:00;;;;;;;135.55;64.43;;;8.40;81.40;;;;;;5092768;28;20044;-91
2022/03/05 10:20:30;;;;;;;143.52;65.68;;;8.40;81.30;;;;;;5090140;28;20056;-90
2022/03/05 10:23:00;;;;;;;132.70;63.90;;;8.50;81.30;;;;;;5093502;28;20040;-93
2022/03/05 10:25:40;;;;;;;129.40;61.67;;;8.50;81.20;;;;;;5092052;28;20056;-91
2022/03/05 10:28:22;;;;;;;130.70;61.30;;;8.50;81.20;;;;;;5092195;28;20040;-91
2022/03/05 10:30:53;;;;;;;129.70;61.35;;;8.50;81.20;;;;;;5090507;28;20048;-90
2022/03/05 10:33:32;;;;;;;118.45;60.25;;;8.50;81.10;;;;;;5091980;28;20044;-92
2022/03/05 10:36:02;;;;;;;140.85;62.92;;;8.60;81.10;;;;;;5077065;28;20048;-90
2022/03/05 10:38:58;;;;;;;132.70;63.80;;;8.60;81.10;;;;;;5093203;28;20432;-91
2022/03/05 10:41:39;;;;;;;123.45;61.35;;;8.60;81.10;;;;;;5090143;28;20048;-90
2022/03/05 10:44:18;;;;;;;130.63;62.97;;;8.70;81.00;;;;;;5092102;28;20044;-90
2022/03/05 10:47:03;;;;;;;128.85;61.70;;;8.70;81.00;;;;;;5091821;28;20044;-91
2022/03/05 10:49:38;;;;;;;127.20;62.33;;;8.70;80.90;;;;;;5085769;28;20498;-90
2022/03/05 10:52:10;;;;;;;127.13;61.22;;;8.80;80.90;;;;;;5091879;28;20089;-90
2022/03/05 10:54:42;;;;;;;126.55;61.78;;;8.80;80.90;;;;;;5091332;28;20554;-91
2022/03/05 10:57:23;;;;;;;133.15;62.92;;;8.90;80.90;;;;;;5091671;28;20048;-91
2022/03/05 10:59:52;;;;;;;128.55;60.65;;;8.90;80.80;;;;;;5091609;28;20048;-91
2022/03/05 11:02:21;;;;;;;126.50;61.38;;;8.90;80.80;;;;;;5093771;28;20074;-91
2022/03/05 11:04:49;;;;;;;125.95;61.20;;;9.00;80.80;;;;;;5091157;28;20052;-90
2022/03/05 11:07:19;;;;;;;132.32;61.58;;;9.10;80.80;;;;;;5091358;28;20044;-93
2022/03/05 11:09:49;;;;;;;129.80;61.40;;;9.20;80.70;;;;;;5085703;28;20052;-89
2022/03/05 11:12:19;;;;;;;123.00;60.20;;;9.30;80.70;;;;;;5090614;28;20044;-90
2022/03/05 11:14:47;;;;;;;130.35;61.45;;;9.40;80.60;;;;;;5091420;28;20051;-90
2022/03/05 11:17:15;;;;;;;128.25;62.30;;;9.40;80.60;;;;;;5093138;28;20101;-89
2022/03/05 11:19:43;;;;;;;130.35;62.92;;;9.60;80.50;;;;;;5091353;28;20044;-90
2022/03/05 11:22:11;;;;;;;125.57;60.63;;;9.70;80.40;;;;;;5089779;28;20070;-91
2022/03/05 11:24:40;;;;;;;120.72;59.58;;;9.80;80.20;;;;;;5091176;28;20047;-90
2022/03/05 11:27:13;;;;;;;124.20;62.00;;;9.90;80.00;;;;;;5089758;28;20048;-91
2022/03/05 11:29:52;;;;;;;114.93;59.45;;;10.00;79.80;;;;;;5091287;28;20051;-90
2022/03/05 11:32:19;;;;;;;116.78;59.20;;;10.10;79.60;;;;;;5088672;28;20048;-90
2022/03/05 11:34:52;;;;;;;127.35;60.75;;;10.20;79.40;;;;;;5091520;28;20047;-90
2022/03/05 11:37:26;;;;;;;111.95;59.88;;;10.20;79.10;;;;;;5091186;28;20040;-90
2022/03/05 11:39:53;;;;;;;111.38;60.72;;;10.40;78.90;;;;;;5090979;28;20051;-90
2022/03/05 11:42:27;;;;;;;114.95;59.42;;;10.40;78.70;;;;;;5091469;28;20044;-91
2022/03/05 11:44:55;;;;;;;109.38;59.45;;;10.50;78.40;;;;;;5074115;28;20497;-90
2022/03/05 11:47:27;;;;;;;121.18;62.00;;;10.50;78.20;;;;;;5093184;28;20048;-90
2022/03/05 11:50:00;;;;;;;106.72;59.47;;;10.60;78.00;;;;;;5090487;28;20055;-90
2022/03/05 11:52:39;;;;;;;118.32;60.97;;;10.60;77.70;;;;;;5090972;28;20386;-90
2022/03/05 11:55:14;;;;;;;109.05;60.08;;;10.70;77.50;;;;;;5090719;28;20048;-91
2022/03/05 11:57:51;;;;;;;111.72;60.58;;;10.80;77.30;;;;;;5093140;28;20493;-91
2022/03/05 12:00:26;;;;;;;110.75;60.08;;;10.80;77.10;;;;;;5091015;28;20460;-91
2022/03/05 12:02:55;;;;;;;112.95;61.47;;;10.90;76.90;;;;;;5078386;28;20045;-90
2022/03/05 12:05:44;;;;;;;104.90;58.03;;;10.90;76.70;;;;;;5093275;28;20057;-91
2022/03/05 12:08:22;;;;;;;111.47;60.03;;;10.90;76.50;;;;;;5096150;28;20056;-90
2022/03/05 12:11:12;;;;;;;111.60;59.80;;;11.00;76.30;;;;;;5092615;28;20044;-91
2022/03/05 12:13:54;;;;;;;111.53;60.65;;;11.00;76.10;;;;;;5093442;28;20169;-90
2022/03/05 12:16:26;;;;;;;111.88;61.20;;;11.10;75.90;;;;;;5094519;28;20569;-92
2022/03/05 12:18:56;;;;;;;107.60;58.80;;;11.10;75.70;;;;;;5089146;28;20121;-91
2022/03/05 12:21:27;;;;;;;102.18;58.95;;;11.20;75.50;;;;;;5095088;28;20048;-91
2022/03/05 12:24:08;;;;;;;101.38;59.30;;;11.20;75.30;;;;;;5078123;28;20053;-90
2022/03/05 12:26:40;;;;;;;111.47;62.20;;;11.20;75.20;;;;;;5094056;28;20077;-91
2022/03/05 12:29:08;;;;;;;107.82;60.67;;;11.20;75.00;;;;;;5095166;28;20079;-91
2022/03/05 12:31:43;;;;;;;110.47;60.85;;;11.20;74.80;;;;;;5094134;28;20051;-92
2022/03/05 12:34:12;;;;;;;110.90;60.83;;;11.20;74.70;;;;;;5094687;28;20044;-92
2022/03/05 12:36:46;;;;;;;104.22;61.22;;;11.30;74.60;;;;;;5094350;28;20105;-94
2022/03/05 12:39:14;;;;;;;108.78;62.17;;;11.30;74.40;;;;;;5094427;28;20051;-92
2022/03/05 12:41:45;;;;;;;108.25;61.70;;;11.40;74.30;;;;;;5094765;28;20128;-91